sensor_id;sensor_type;location;lat;lon;timestamp;P1;durP1;ratioP1;P2;durP2;ratioP2
59271;SDS011;45043;51.068;7.026;2023-10-13T00:00:45;10.33;;;8.07;;
59271;SDS011;45043;51.068;7.026;2023-10-13T00:03:48;9.67;;;8.13;;
59271;SDS011;45043;51.068;7.026;2023-10-13T00:06:52;12.03;;;9.63;;
59271;SDS011;45043;51.068;7.026;2023-10-13T00:09:54;12.33;;;9.30;;
59271;SDS011;45043;51.068;7.026;2023-10-13T00:12:57;9.97;;;8.83;;
59271;SDS011;45043;51.068;7.026;2023-10-13T00:16:09;11.73;;;9.10;;
59271;SDS011;45043;51.068;7.026;2023-10-13T00:19:17;11.73;;;9.30;;
59271;SDS011;45043;51.068;7.026;2023-10-13T00:22:18;13.27;;;11.03;;
59271;SDS011;45043;51.068;7.026;2023-10-13T00:25:20;11.97;;;9.30;;
59271;SDS011;45043;51.068;7.026;2023-10-13T00:28:26;16.20;;;10.40;;
59271;SDS011;45043;51.068;7.026;2023-10-13T00:31:36;11.17;;;9.80;;
59271;SDS011;45043;51.068;7.026;2023-10-13T00:34:40;11.93;;;9.73;;
59271;SDS011;45043;51.068;7.026;2023-10-13T00:37:41;12.57;;;10.60;;
59271;SDS011;45043;51.068;7.026;2023-10-13T00:40:44;13.63;;;11.07;;
59271;SDS011;45043;51.068;7.026;2023-10-13T00:43:52;11.33;;;9.80;;
59271;SDS011;45043;51.068;7.026;2023-10-13T00:47:19;13.73;;;10.30;;
59271;SDS011;45043;51.068;7.026;2023-10-13T00:50:36;15.37;;;10.77;;
59271;SDS011;45043;51.068;7.026;2023-10-13T00:53:38;12.33;;;9.60;;
59271;SDS011;45043;51.068;7.026;2023-10-13T00:56:45;13.47;;;10.07;;
59271;SDS011;45043;51.068;7.026;2023-10-13T00:59:49;12.13;;;9.90;;
59271;SDS011;45043;51.068;7.026;2023-10-13T01:02:57;11.57;;;9.47;;
59271;SDS011;45043;51.068;7.026;2023-10-13T01:06:05;12.13;;;9.87;;
59271;SDS011;45043;51.068;7.026;2023-10-13T01:09:08;11.47;;;9.60;;
59271;SDS011;45043;51.068;7.026;2023-10-13T01:12:13;11.17;;;9.00;;
59271;SDS011;45043;51.068;7.026;2023-10-13T01:15:15;13.13;;;10.07;;
59271;SDS011;45043;51.068;7.026;2023-10-13T01:18:20;11.10;;;9.97;;
59271;SDS011;45043;51.068;7.026;2023-10-13T01:21:22;11.00;;;9.27;;
59271;SDS011;45043;51.068;7.026;2023-10-13T01:24:28;11.20;;;9.73;;
59271;SDS011;45043;51.068;7.026;2023-10-13T01:27:35;11.97;;;9.63;;
59271;SDS011;45043;51.068;7.026;2023-10-13T01:30:38;11.37;;;9.77;;
59271;SDS011;45043;51.068;7.026;2023-10-13T01:33:44;11.90;;;9.63;;
59271;SDS011;45043;51.068;7.026;2023-10-13T01:36:45;11.23;;;10.10;;
59271;SDS011;45043;51.068;7.026;2023-10-13T01:39:45;12.37;;;10.60;;
59271;SDS011;45043;51.068;7.026;2023-10-13T01:42:49;12.20;;;10.43;;
59271;SDS011;45043;51.068;7.026;2023-10-13T01:45:55;12.43;;;10.37;;
59271;SDS011;45043;51.068;7.026;2023-10-13T01:48:56;15.47;;;11.33;;
59271;SDS011;45043;51.068;7.026;2023-10-13T01:51:59;11.70;;;10.50;;
59271;SDS011;45043;51.068;7.026;2023-10-13T01:55:03;12.53;;;10.13;;
59271;SDS011;45043;51.068;7.026;2023-10-13T01:58:07;11.70;;;9.70;;
59271;SDS011;45043;51.068;7.026;2023-10-13T02:01:15;13.53;;;11.00;;
59271;SDS011;45043;51.068;7.026;2023-10-13T02:04:29;17.07;;;10.43;;
59271;SDS011;45043;51.068;7.026;2023-10-13T02:07:37;11.90;;;9.83;;
59271;SDS011;45043;51.068;7.026;2023-10-13T02:10:39;11.73;;;10.50;;
59271;SDS011;45043;51.068;7.026;2023-10-13T02:13:44;14.70;;;10.97;;
59271;SDS011;45043;51.068;7.026;2023-10-13T02:16:49;13.67;;;10.10;;
59271;SDS011;45043;51.068;7.026;2023-10-13T02:20:12;14.67;;;11.90;;
59271;SDS011;45043;51.068;7.026;2023-10-13T02:23:16;12.27;;;10.63;;
59271;SDS011;45043;51.068;7.026;2023-10-13T02:26:18;11.40;;;10.20;;
59271;SDS011;45043;51.068;7.026;2023-10-13T02:29:30;12.97;;;11.33;;
59271;SDS011;45043;51.068;7.026;2023-10-13T02:32:39;14.70;;;11.07;;
59271;SDS011;45043;51.068;7.026;2023-10-13T02:35:44;13.40;;;10.90;;
59271;SDS011;45043;51.068;7.026;2023-10-13T02:38:53;13.00;;;10.60;;
59271;SDS011;45043;51.068;7.026;2023-10-13T02:41:58;15.40;;;11.43;;
59271;SDS011;45043;51.068;7.026;2023-10-13T02:44:59;13.23;;;10.67;;
59271;SDS011;45043;51.068;7.026;2023-10-13T02:47:59;13.40;;;10.73;;
59271;SDS011;45043;51.068;7.026;2023-10-13T02:51:19;12.43;;;10.47;;
59271;SDS011;45043;51.068;7.026;2023-10-13T02:54:32;12.13;;;10.77;;
59271;SDS011;45043;51.068;7.026;2023-10-13T02:57:41;15.43;;;10.90;;
59271;SDS011;45043;51.068;7.026;2023-10-13T03:00:41;12.47;;;10.43;;
59271;SDS011;45043;51.068;7.026;2023-10-13T03:03:43;15.67;;;11.17;;
59271;SDS011;45043;51.068;7.026;2023-10-13T03:06:54;14.43;;;10.87;;
59271;SDS011;45043;51.068;7.026;2023-10-13T03:09:56;15.43;;;11.37;;
59271;SDS011;45043;51.068;7.026;2023-10-13T03:13:10;13.23;;;10.60;;
59271;SDS011;45043;51.068;7.026;2023-10-13T03:16:12;14.33;;;10.77;;
59271;SDS011;45043;51.068;7.026;2023-10-13T03:19:16;15.80;;;11.17;;
59271;SDS011;45043;51.068;7.026;2023-10-13T03:22:19;13.33;;;10.77;;
59271;SDS011;45043;51.068;7.026;2023-10-13T03:25:33;12.23;;;10.87;;
59271;SDS011;45043;51.068;7.026;2023-10-13T03:28:42;14.73;;;10.23;;
59271;SDS011;45043;51.068;7.026;2023-10-13T03:31:47;13.57;;;11.20;;
59271;SDS011;45043;51.068;7.026;2023-10-13T03:35:04;12.40;;;11.03;;
59271;SDS011;45043;51.068;7.026;2023-10-13T03:38:13;15.00;;;11.17;;
59271;SDS011;45043;51.068;7.026;2023-10-13T03:41:17;15.90;;;12.23;;
59271;SDS011;45043;51.068;7.026;2023-10-13T03:44:25;14.30;;;10.80;;
59271;SDS011;45043;51.068;7.026;2023-10-13T03:47:30;15.17;;;11.70;;
59271;SDS011;45043;51.068;7.026;2023-10-13T03:50:32;14.57;;;11.43;;
59271;SDS011;45043;51.068;7.026;2023-10-13T03:53:36;14.17;;;12.70;;
59271;SDS011;45043;51.068;7.026;2023-10-13T03:56:55;14.93;;;11.50;;
59271;SDS011;45043;51.068;7.026;2023-10-13T03:59:56;17.67;;;12.07;;
59271;SDS011;45043;51.068;7.026;2023-10-13T04:02:57;13.23;;;11.63;;
59271;SDS011;45043;51.068;7.026;2023-10-13T04:06:09;13.43;;;11.10;;
59271;SDS011;45043;51.068;7.026;2023-10-13T04:09:19;14.60;;;11.80;;
59271;SDS011;45043;51.068;7.026;2023-10-13T04:12:32;14.73;;;10.90;;
59271;SDS011;45043;51.068;7.026;2023-10-13T04:15:51;12.10;;;9.90;;
59271;SDS011;45043;51.068;7.026;2023-10-13T04:19:10;13.23;;;9.93;;
59271;SDS011;45043;51.068;7.026;2023-10-13T04:22:20;11.43;;;9.47;;
59271;SDS011;45043;51.068;7.026;2023-10-13T04:25:22;15.03;;;9.83;;
59271;SDS011;45043;51.068;7.026;2023-10-13T04:28:41;14.77;;;10.77;;
59271;SDS011;45043;51.068;7.026;2023-10-13T04:31:54;12.63;;;9.77;;
59271;SDS011;45043;51.068;7.026;2023-10-13T04:35:01;14.87;;;10.17;;
59271;SDS011;45043;51.068;7.026;2023-10-13T04:38:18;9.33;;;8.33;;
59271;SDS011;45043;51.068;7.026;2023-10-13T04:41:21;13.63;;;10.00;;
59271;SDS011;45043;51.068;7.026;2023-10-13T04:44:24;13.43;;;10.73;;
59271;SDS011;45043;51.068;7.026;2023-10-13T04:47:43;14.60;;;9.77;;
59271;SDS011;45043;51.068;7.026;2023-10-13T04:51:01;12.13;;;10.57;;
59271;SDS011;45043;51.068;7.026;2023-10-13T04:54:20;14.20;;;10.80;;
59271;SDS011;45043;51.068;7.026;2023-10-13T04:57:26;12.47;;;10.33;;
59271;SDS011;45043;51.068;7.026;2023-10-13T05:00:35;14.23;;;10.27;;
59271;SDS011;45043;51.068;7.026;2023-10-13T05:03:54;12.53;;;10.60;;
59271;SDS011;45043;51.068;7.026;2023-10-13T05:07:15;10.57;;;9.47;;
59271;SDS011;45043;51.068;7.026;2023-10-13T05:10:34;12.93;;;10.57;;
59271;SDS011;45043;51.068;7.026;2023-10-13T05:13:54;11.10;;;8.43;;
59271;SDS011;45043;51.068;7.026;2023-10-13T05:17:13;10.00;;;8.63;;
59271;SDS011;45043;51.068;7.026;2023-10-13T05:20:32;12.07;;;9.50;;
59271;SDS011;45043;51.068;7.026;2023-10-13T05:23:51;14.93;;;9.83;;
59271;SDS011;45043;51.068;7.026;2023-10-13T05:27:10;10.63;;;9.20;;
59271;SDS011;45043;51.068;7.026;2023-10-13T05:30:29;12.83;;;10.63;;
59271;SDS011;45043;51.068;7.026;2023-10-13T05:33:48;12.23;;;9.53;;
59271;SDS011;45043;51.068;7.026;2023-10-13T05:37:09;12.50;;;9.23;;
59271;SDS011;45043;51.068;7.026;2023-10-13T05:40:28;15.60;;;10.23;;
59271;SDS011;45043;51.068;7.026;2023-10-13T05:43:48;14.27;;;9.47;;
59271;SDS011;45043;51.068;7.026;2023-10-13T05:47:08;12.63;;;9.43;;
59271;SDS011;45043;51.068;7.026;2023-10-13T05:50:27;15.17;;;10.33;;
59271;SDS011;45043;51.068;7.026;2023-10-13T05:53:28;13.20;;;8.90;;
59271;SDS011;45043;51.068;7.026;2023-10-13T05:56:48;10.37;;;8.00;;
59271;SDS011;45043;51.068;7.026;2023-10-13T06:00:09;13.23;;;8.73;;
59271;SDS011;45043;51.068;7.026;2023-10-13T06:03:28;10.63;;;8.90;;
59271;SDS011;45043;51.068;7.026;2023-10-13T06:06:47;11.90;;;8.53;;
59271;SDS011;45043;51.068;7.026;2023-10-13T06:10:06;14.07;;;9.47;;
59271;SDS011;45043;51.068;7.026;2023-10-13T06:13:27;10.73;;;8.30;;
59271;SDS011;45043;51.068;7.026;2023-10-13T06:16:48;15.03;;;10.20;;
59271;SDS011;45043;51.068;7.026;2023-10-13T06:20:07;11.80;;;8.60;;
59271;SDS011;45043;51.068;7.026;2023-10-13T06:23:27;12.90;;;9.57;;
59271;SDS011;45043;51.068;7.026;2023-10-13T06:26:47;12.77;;;10.50;;
59271;SDS011;45043;51.068;7.026;2023-10-13T06:30:06;13.27;;;9.93;;
59271;SDS011;45043;51.068;7.026;2023-10-13T06:33:07;14.43;;;9.73;;
59271;SDS011;45043;51.068;7.026;2023-10-13T06:36:11;14.20;;;9.87;;
59271;SDS011;45043;51.068;7.026;2023-10-13T06:39:12;15.53;;;10.63;;
59271;SDS011;45043;51.068;7.026;2023-10-13T06:42:35;15.67;;;10.30;;
59271;SDS011;45043;51.068;7.026;2023-10-13T06:45:40;12.73;;;10.63;;
59271;SDS011;45043;51.068;7.026;2023-10-13T06:48:41;14.90;;;10.40;;
59271;SDS011;45043;51.068;7.026;2023-10-13T06:51:43;12.90;;;9.60;;
59271;SDS011;45043;51.068;7.026;2023-10-13T06:54:43;14.60;;;9.60;;
59271;SDS011;45043;51.068;7.026;2023-10-13T06:57:44;13.90;;;9.27;;
59271;SDS011;45043;51.068;7.026;2023-10-13T07:00:48;14.83;;;9.03;;
59271;SDS011;45043;51.068;7.026;2023-10-13T07:03:56;13.53;;;9.87;;
59271;SDS011;45043;51.068;7.026;2023-10-13T07:07:02;16.27;;;9.57;;
59271;SDS011;45043;51.068;7.026;2023-10-13T07:10:09;14.33;;;8.40;;
59271;SDS011;45043;51.068;7.026;2023-10-13T07:13:12;12.90;;;8.27;;
59271;SDS011;45043;51.068;7.026;2023-10-13T07:16:14;14.03;;;8.77;;
59271;SDS011;45043;51.068;7.026;2023-10-13T07:19:16;13.77;;;8.23;;
59271;SDS011;45043;51.068;7.026;2023-10-13T07:22:17;14.77;;;7.97;;
59271;SDS011;45043;51.068;7.026;2023-10-13T07:25:51;14.77;;;8.03;;
59271;SDS011;45043;51.068;7.026;2023-10-13T07:29:03;22.30;;;7.80;;
59271;SDS011;45043;51.068;7.026;2023-10-13T07:32:08;13.23;;;8.37;;
59271;SDS011;45043;51.068;7.026;2023-10-13T07:35:16;15.33;;;8.17;;
59271;SDS011;45043;51.068;7.026;2023-10-13T07:38:21;17.83;;;8.17;;
59271;SDS011;45043;51.068;7.026;2023-10-13T07:41:22;14.43;;;8.67;;
59271;SDS011;45043;51.068;7.026;2023-10-13T07:44:30;13.83;;;7.77;;
59271;SDS011;45043;51.068;7.026;2023-10-13T07:47:34;16.07;;;8.03;;
59271;SDS011;45043;51.068;7.026;2023-10-13T07:50:35;19.53;;;8.57;;
59271;SDS011;45043;51.068;7.026;2023-10-13T07:53:36;17.60;;;8.40;;
59271;SDS011;45043;51.068;7.026;2023-10-13T07:56:51;12.53;;;8.30;;
59271;SDS011;45043;51.068;7.026;2023-10-13T07:59:51;14.60;;;7.93;;
59271;SDS011;45043;51.068;7.026;2023-10-13T08:02:58;14.87;;;8.00;;
59271;SDS011;45043;51.068;7.026;2023-10-13T08:06:19;14.57;;;8.20;;
59271;SDS011;45043;51.068;7.026;2023-10-13T08:09:20;13.40;;;7.03;;
59271;SDS011;45043;51.068;7.026;2023-10-13T08:12:40;15.50;;;7.87;;
59271;SDS011;45043;51.068;7.026;2023-10-13T08:15:44;14.13;;;8.00;;
59271;SDS011;45043;51.068;7.026;2023-10-13T08:18:51;15.07;;;8.47;;
59271;SDS011;45043;51.068;7.026;2023-10-13T08:21:57;13.83;;;7.83;;
59271;SDS011;45043;51.068;7.026;2023-10-13T08:25:20;13.43;;;7.27;;
59271;SDS011;45043;51.068;7.026;2023-10-13T08:28:21;13.47;;;7.23;;
59271;SDS011;45043;51.068;7.026;2023-10-13T08:31:55;19.43;;;8.10;;
59271;SDS011;45043;51.068;7.026;2023-10-13T08:35:15;16.70;;;7.90;;
59271;SDS011;45043;51.068;7.026;2023-10-13T08:38:31;16.00;;;7.10;;
59271;SDS011;45043;51.068;7.026;2023-10-13T08:41:44;12.90;;;7.00;;
59271;SDS011;45043;51.068;7.026;2023-10-13T08:45:12;15.47;;;7.37;;
59271;SDS011;45043;51.068;7.026;2023-10-13T08:48:24;21.07;;;7.80;;
59271;SDS011;45043;51.068;7.026;2023-10-13T08:51:33;18.07;;;7.23;;
59271;SDS011;45043;51.068;7.026;2023-10-13T08:54:44;12.20;;;6.57;;
59271;SDS011;45043;51.068;7.026;2023-10-13T08:58:03;18.43;;;7.70;;
59271;SDS011;45043;51.068;7.026;2023-10-13T09:01:14;12.40;;;6.80;;
59271;SDS011;45043;51.068;7.026;2023-10-13T09:04:35;16.73;;;7.27;;
59271;SDS011;45043;51.068;7.026;2023-10-13T09:07:45;10.07;;;6.30;;
59271;SDS011;45043;51.068;7.026;2023-10-13T09:10:47;13.27;;;6.77;;
59271;SDS011;45043;51.068;7.026;2023-10-13T09:14:12;14.43;;;6.77;;
59271;SDS011;45043;51.068;7.026;2023-10-13T09:17:40;12.53;;;6.00;;
59271;SDS011;45043;51.068;7.026;2023-10-13T09:21:08;16.67;;;6.90;;
59271;SDS011;45043;51.068;7.026;2023-10-13T09:24:28;11.07;;;6.83;;
59271;SDS011;45043;51.068;7.026;2023-10-13T09:27:33;16.07;;;6.53;;
59271;SDS011;45043;51.068;7.026;2023-10-13T09:30:34;18.47;;;6.53;;
59271;SDS011;45043;51.068;7.026;2023-10-13T09:33:35;19.87;;;11.07;;
59271;SDS011;45043;51.068;7.026;2023-10-13T09:36:37;18.57;;;8.83;;
59271;SDS011;45043;51.068;7.026;2023-10-13T09:39:38;19.47;;;10.03;;
59271;SDS011;45043;51.068;7.026;2023-10-13T09:42:46;18.53;;;7.70;;
59271;SDS011;45043;51.068;7.026;2023-10-13T09:45:48;14.03;;;6.70;;
59271;SDS011;45043;51.068;7.026;2023-10-13T09:49:09;15.13;;;7.00;;
59271;SDS011;45043;51.068;7.026;2023-10-13T09:52:23;11.40;;;6.23;;
59271;SDS011;45043;51.068;7.026;2023-10-13T09:55:29;11.87;;;6.77;;
59271;SDS011;45043;51.068;7.026;2023-10-13T09:58:36;15.27;;;7.07;;
59271;SDS011;45043;51.068;7.026;2023-10-13T10:01:47;10.17;;;6.53;;
59271;SDS011;45043;51.068;7.026;2023-10-13T10:04:51;17.37;;;6.43;;
59271;SDS011;45043;51.068;7.026;2023-10-13T10:07:56;13.90;;;6.70;;
59271;SDS011;45043;51.068;7.026;2023-10-13T10:11:00;12.13;;;6.33;;
59271;SDS011;45043;51.068;7.026;2023-10-13T10:17:57;13.37;;;6.60;;
59271;SDS011;45043;51.068;7.026;2023-10-13T10:21:04;10.10;;;7.30;;
59271;SDS011;45043;51.068;7.026;2023-10-13T10:24:20;11.47;;;7.40;;
59271;SDS011;45043;51.068;7.026;2023-10-13T10:27:30;13.43;;;7.23;;
59271;SDS011;45043;51.068;7.026;2023-10-13T10:30:36;12.57;;;6.83;;
59271;SDS011;45043;51.068;7.026;2023-10-13T10:33:42;10.70;;;7.47;;
59271;SDS011;45043;51.068;7.026;2023-10-13T10:36:48;12.77;;;7.10;;
59271;SDS011;45043;51.068;7.026;2023-10-13T10:39:54;12.00;;;7.13;;
59271;SDS011;45043;51.068;7.026;2023-10-13T10:42:57;13.77;;;7.13;;
59271;SDS011;45043;51.068;7.026;2023-10-13T10:46:01;12.67;;;7.17;;
59271;SDS011;45043;51.068;7.026;2023-10-13T10:49:03;10.03;;;6.97;;
59271;SDS011;45043;51.068;7.026;2023-10-13T10:52:09;12.20;;;7.37;;
59271;SDS011;45043;51.068;7.026;2023-10-13T10:55:21;11.70;;;7.57;;
59271;SDS011;45043;51.068;7.026;2023-10-13T10:58:32;12.20;;;7.57;;
59271;SDS011;45043;51.068;7.026;2023-10-13T11:01:45;12.37;;;7.13;;
59271;SDS011;45043;51.068;7.026;2023-10-13T11:04:53;11.80;;;6.73;;
59271;SDS011;45043;51.068;7.026;2023-10-13T11:07:56;11.00;;;7.33;;
59271;SDS011;45043;51.068;7.026;2023-10-13T11:10:59;11.93;;;7.23;;
59271;SDS011;45043;51.068;7.026;2023-10-13T11:14:01;11.37;;;7.27;;
59271;SDS011;45043;51.068;7.026;2023-10-13T11:17:21;15.37;;;8.30;;
59271;SDS011;45043;51.068;7.026;2023-10-13T11:20:41;12.37;;;7.50;;
59271;SDS011;45043;51.068;7.026;2023-10-13T11:23:54;11.80;;;7.20;;
59271;SDS011;45043;51.068;7.026;2023-10-13T11:26:56;13.50;;;7.10;;
59271;SDS011;45043;51.068;7.026;2023-10-13T11:29:57;14.50;;;7.43;;
59271;SDS011;45043;51.068;7.026;2023-10-13T11:33:06;12.97;;;7.10;;
59271;SDS011;45043;51.068;7.026;2023-10-13T11:36:09;17.43;;;7.30;;
59271;SDS011;45043;51.068;7.026;2023-10-13T11:39:17;9.37;;;6.73;;
59271;SDS011;45043;51.068;7.026;2023-10-13T11:42:24;10.80;;;6.83;;
59271;SDS011;45043;51.068;7.026;2023-10-13T11:45:27;12.03;;;6.93;;
59271;SDS011;45043;51.068;7.026;2023-10-13T11:48:32;11.27;;;7.07;;
59271;SDS011;45043;51.068;7.026;2023-10-13T11:51:38;13.30;;;7.57;;
59271;SDS011;45043;51.068;7.026;2023-10-13T11:54:39;12.73;;;7.27;;
59271;SDS011;45043;51.068;7.026;2023-10-13T11:57:42;13.00;;;7.47;;
59271;SDS011;45043;51.068;7.026;2023-10-13T12:00:43;10.47;;;6.30;;
59271;SDS011;45043;51.068;7.026;2023-10-13T12:04:03;12.03;;;6.67;;
59271;SDS011;45043;51.068;7.026;2023-10-13T12:07:22;11.43;;;6.80;;
59271;SDS011;45043;51.068;7.026;2023-10-13T12:10:27;10.87;;;7.00;;
59271;SDS011;45043;51.068;7.026;2023-10-13T12:13:34;10.50;;;6.17;;
59271;SDS011;45043;51.068;7.026;2023-10-13T12:16:34;10.00;;;6.30;;
59271;SDS011;45043;51.068;7.026;2023-10-13T12:19:35;16.73;;;6.73;;
59271;SDS011;45043;51.068;7.026;2023-10-13T12:22:36;13.70;;;6.67;;
59271;SDS011;45043;51.068;7.026;2023-10-13T12:25:43;11.63;;;6.47;;
59271;SDS011;45043;51.068;7.026;2023-10-13T12:28:55;12.37;;;6.47;;
59271;SDS011;45043;51.068;7.026;2023-10-13T12:32:06;13.30;;;6.63;;
59271;SDS011;45043;51.068;7.026;2023-10-13T12:35:13;10.20;;;6.00;;
59271;SDS011;45043;51.068;7.026;2023-10-13T12:38:13;11.73;;;6.30;;
59271;SDS011;45043;51.068;7.026;2023-10-13T12:41:37;9.60;;;5.97;;
59271;SDS011;45043;51.068;7.026;2023-10-13T12:44:56;11.57;;;6.07;;
59271;SDS011;45043;51.068;7.026;2023-10-13T12:48:15;19.57;;;6.73;;
59271;SDS011;45043;51.068;7.026;2023-10-13T12:51:34;10.57;;;5.50;;
59271;SDS011;45043;51.068;7.026;2023-10-13T12:54:35;10.63;;;6.00;;
59271;SDS011;45043;51.068;7.026;2023-10-13T12:57:36;12.77;;;6.30;;
59271;SDS011;45043;51.068;7.026;2023-10-13T13:00:43;11.37;;;6.27;;
59271;SDS011;45043;51.068;7.026;2023-10-13T13:03:49;10.93;;;6.23;;
59271;SDS011;45043;51.068;7.026;2023-10-13T13:06:51;9.03;;;6.03;;
59271;SDS011;45043;51.068;7.026;2023-10-13T13:09:51;11.60;;;5.67;;
59271;SDS011;45043;51.068;7.026;2023-10-13T13:12:56;11.77;;;5.93;;
59271;SDS011;45043;51.068;7.026;2023-10-13T13:15:58;10.73;;;6.00;;
59271;SDS011;45043;51.068;7.026;2023-10-13T13:18:58;15.63;;;6.37;;
59271;SDS011;45043;51.068;7.026;2023-10-13T13:21:59;16.30;;;6.70;;
59271;SDS011;45043;51.068;7.026;2023-10-13T13:25:00;15.13;;;6.07;;
59271;SDS011;45043;51.068;7.026;2023-10-13T13:28:01;15.63;;;6.53;;
59271;SDS011;45043;51.068;7.026;2023-10-13T13:31:05;14.30;;;6.00;;
59271;SDS011;45043;51.068;7.026;2023-10-13T13:34:08;14.30;;;5.97;;
59271;SDS011;45043;51.068;7.026;2023-10-13T13:37:10;17.40;;;6.10;;
59271;SDS011;45043;51.068;7.026;2023-10-13T13:40:13;14.57;;;6.23;;
59271;SDS011;45043;51.068;7.026;2023-10-13T13:43:18;14.00;;;5.90;;
59271;SDS011;45043;51.068;7.026;2023-10-13T13:46:38;20.13;;;6.17;;
59271;SDS011;45043;51.068;7.026;2023-10-13T13:49:42;16.77;;;6.47;;
59271;SDS011;45043;51.068;7.026;2023-10-13T13:52:53;13.43;;;6.00;;
59271;SDS011;45043;51.068;7.026;2023-10-13T13:55:59;17.73;;;6.23;;
59271;SDS011;45043;51.068;7.026;2023-10-13T13:59:00;15.37;;;6.17;;
59271;SDS011;45043;51.068;7.026;2023-10-13T14:02:08;15.93;;;7.20;;
59271;SDS011;45043;51.068;7.026;2023-10-13T14:05:20;20.37;;;7.30;;
59271;SDS011;45043;51.068;7.026;2023-10-13T14:08:20;16.90;;;6.00;;
59271;SDS011;45043;51.068;7.026;2023-10-13T14:11:23;14.90;;;7.00;;
59271;SDS011;45043;51.068;7.026;2023-10-13T14:14:24;18.43;;;6.63;;
59271;SDS011;45043;51.068;7.026;2023-10-13T14:17:25;15.97;;;5.90;;
59271;SDS011;45043;51.068;7.026;2023-10-13T14:20:35;14.03;;;6.00;;
59271;SDS011;45043;51.068;7.026;2023-10-13T14:23:40;14.90;;;5.90;;
59271;SDS011;45043;51.068;7.026;2023-10-13T14:26:42;19.60;;;6.30;;
59271;SDS011;45043;51.068;7.026;2023-10-13T14:29:43;13.00;;;5.67;;
59271;SDS011;45043;51.068;7.026;2023-10-13T14:32:44;14.07;;;6.10;;
59271;SDS011;45043;51.068;7.026;2023-10-13T14:35:45;15.50;;;6.03;;
59271;SDS011;45043;51.068;7.026;2023-10-13T14:38:47;12.67;;;5.77;;
59271;SDS011;45043;51.068;7.026;2023-10-13T14:41:51;19.53;;;6.10;;
59271;SDS011;45043;51.068;7.026;2023-10-13T14:44:52;17.83;;;5.70;;
59271;SDS011;45043;51.068;7.026;2023-10-13T14:47:56;16.50;;;6.30;;
59271;SDS011;45043;51.068;7.026;2023-10-13T14:50:58;13.70;;;6.30;;
59271;SDS011;45043;51.068;7.026;2023-10-13T14:53:58;10.27;;;5.53;;
59271;SDS011;45043;51.068;7.026;2023-10-13T14:57:05;11.07;;;5.93;;
59271;SDS011;45043;51.068;7.026;2023-10-13T15:00:06;13.67;;;6.30;;
59271;SDS011;45043;51.068;7.026;2023-10-13T15:03:13;11.83;;;6.43;;
59271;SDS011;45043;51.068;7.026;2023-10-13T15:06:17;14.93;;;5.97;;
59271;SDS011;45043;51.068;7.026;2023-10-13T15:09:21;15.73;;;5.50;;
59271;SDS011;45043;51.068;7.026;2023-10-13T15:12:24;15.93;;;5.60;;
59271;SDS011;45043;51.068;7.026;2023-10-13T15:15:26;19.30;;;6.00;;
59271;SDS011;45043;51.068;7.026;2023-10-13T15:18:27;13.27;;;5.30;;
59271;SDS011;45043;51.068;7.026;2023-10-13T15:21:28;17.30;;;5.70;;
59271;SDS011;45043;51.068;7.026;2023-10-13T15:24:37;15.43;;;6.00;;
59271;SDS011;45043;51.068;7.026;2023-10-13T15:27:45;15.23;;;5.73;;
59271;SDS011;45043;51.068;7.026;2023-10-13T15:30:51;11.87;;;5.83;;
59271;SDS011;45043;51.068;7.026;2023-10-13T15:34:12;12.57;;;6.00;;
59271;SDS011;45043;51.068;7.026;2023-10-13T15:37:13;12.40;;;5.57;;
59271;SDS011;45043;51.068;7.026;2023-10-13T15:40:16;10.73;;;5.27;;
59271;SDS011;45043;51.068;7.026;2023-10-13T15:43:18;11.23;;;5.53;;
59271;SDS011;45043;51.068;7.026;2023-10-13T15:46:19;9.47;;;4.93;;
59271;SDS011;45043;51.068;7.026;2023-10-13T15:49:22;8.77;;;4.90;;
59271;SDS011;45043;51.068;7.026;2023-10-13T15:52:23;11.10;;;5.47;;
59271;SDS011;45043;51.068;7.026;2023-10-13T15:55:25;12.43;;;5.33;;
59271;SDS011;45043;51.068;7.026;2023-10-13T15:58:26;9.27;;;5.00;;
59271;SDS011;45043;51.068;7.026;2023-10-13T16:01:27;11.20;;;5.00;;
59271;SDS011;45043;51.068;7.026;2023-10-13T16:04:29;9.67;;;5.23;;
59271;SDS011;45043;51.068;7.026;2023-10-13T16:07:30;9.83;;;5.63;;
59271;SDS011;45043;51.068;7.026;2023-10-13T16:10:31;9.97;;;4.80;;
59271;SDS011;45043;51.068;7.026;2023-10-13T16:13:34;10.17;;;5.50;;
59271;SDS011;45043;51.068;7.026;2023-10-13T16:16:36;12.33;;;5.43;;
59271;SDS011;45043;51.068;7.026;2023-10-13T16:19:37;8.70;;;5.17;;
59271;SDS011;45043;51.068;7.026;2023-10-13T16:22:39;9.73;;;5.50;;
59271;SDS011;45043;51.068;7.026;2023-10-13T16:25:39;8.77;;;5.10;;
59271;SDS011;45043;51.068;7.026;2023-10-13T16:28:44;8.73;;;5.10;;
59271;SDS011;45043;51.068;7.026;2023-10-13T16:31:45;10.87;;;5.10;;
59271;SDS011;45043;51.068;7.026;2023-10-13T16:34:46;9.93;;;5.73;;
59271;SDS011;45043;51.068;7.026;2023-10-13T16:37:48;8.60;;;5.23;;
59271;SDS011;45043;51.068;7.026;2023-10-13T16:40:53;12.40;;;5.47;;
59271;SDS011;45043;51.068;7.026;2023-10-13T16:43:54;6.93;;;4.93;;
59271;SDS011;45043;51.068;7.026;2023-10-13T16:46:55;10.27;;;5.27;;
59271;SDS011;45043;51.068;7.026;2023-10-13T16:50:00;9.37;;;5.77;;
59271;SDS011;45043;51.068;7.026;2023-10-13T16:53:03;9.90;;;5.43;;
59271;SDS011;45043;51.068;7.026;2023-10-13T16:56:07;10.67;;;5.87;;
59271;SDS011;45043;51.068;7.026;2023-10-13T16:59:08;12.00;;;5.97;;
59271;SDS011;45043;51.068;7.026;2023-10-13T17:02:10;11.70;;;6.80;;
59271;SDS011;45043;51.068;7.026;2023-10-13T17:05:12;11.77;;;6.20;;
59271;SDS011;45043;51.068;7.026;2023-10-13T17:08:18;12.53;;;6.40;;
59271;SDS011;45043;51.068;7.026;2023-10-13T17:11:19;9.47;;;6.10;;
59271;SDS011;45043;51.068;7.026;2023-10-13T17:14:20;13.90;;;6.07;;
59271;SDS011;45043;51.068;7.026;2023-10-13T17:17:21;11.53;;;5.53;;
59271;SDS011;45043;51.068;7.026;2023-10-13T17:20:25;13.10;;;6.10;;
59271;SDS011;45043;51.068;7.026;2023-10-13T17:23:27;11.07;;;6.17;;
59271;SDS011;45043;51.068;7.026;2023-10-13T17:26:34;10.87;;;5.70;;
59271;SDS011;45043;51.068;7.026;2023-10-13T17:29:35;9.70;;;5.77;;
59271;SDS011;45043;51.068;7.026;2023-10-13T17:32:37;11.93;;;5.73;;
59271;SDS011;45043;51.068;7.026;2023-10-13T17:35:38;9.40;;;5.10;;
59271;SDS011;45043;51.068;7.026;2023-10-13T17:38:40;9.63;;;4.90;;
59271;SDS011;45043;51.068;7.026;2023-10-13T17:41:41;12.30;;;6.13;;
59271;SDS011;45043;51.068;7.026;2023-10-13T17:44:45;15.67;;;6.07;;
59271;SDS011;45043;51.068;7.026;2023-10-13T17:47:45;9.93;;;6.07;;
59271;SDS011;45043;51.068;7.026;2023-10-13T17:50:46;10.83;;;6.07;;
59271;SDS011;45043;51.068;7.026;2023-10-13T17:53:48;10.57;;;5.50;;
59271;SDS011;45043;51.068;7.026;2023-10-13T17:56:51;9.57;;;5.63;;
59271;SDS011;45043;51.068;7.026;2023-10-13T17:59:55;12.17;;;6.33;;
59271;SDS011;45043;51.068;7.026;2023-10-13T18:02:56;13.53;;;5.90;;
59271;SDS011;45043;51.068;7.026;2023-10-13T18:06:00;9.00;;;6.23;;
59271;SDS011;45043;51.068;7.026;2023-10-13T18:09:04;12.27;;;6.40;;
59271;SDS011;45043;51.068;7.026;2023-10-13T18:12:06;10.90;;;5.47;;
59271;SDS011;45043;51.068;7.026;2023-10-13T18:15:09;12.87;;;6.20;;
59271;SDS011;45043;51.068;7.026;2023-10-13T18:18:18;11.87;;;6.23;;
59271;SDS011;45043;51.068;7.026;2023-10-13T18:21:21;13.73;;;6.27;;
59271;SDS011;45043;51.068;7.026;2023-10-13T18:24:22;9.77;;;6.77;;
59271;SDS011;45043;51.068;7.026;2023-10-13T18:27:24;11.03;;;6.33;;
59271;SDS011;45043;51.068;7.026;2023-10-13T18:30:25;10.80;;;6.70;;
59271;SDS011;45043;51.068;7.026;2023-10-13T18:33:28;12.80;;;6.87;;